sensor_id;sensor_type;location;lat;lon;timestamp;P1;durP1;ratioP1;P2;durP2;ratioP2
33505;SDS011;19843;51.040;13.782;2022-08-05T00:00:13;2.13;;;1.70;;
33505;SDS011;19843;51.040;13.782;2022-08-05T00:02:41;2.38;;;1.95;;
33505;SDS011;19843;51.040;13.782;2022-08-05T00:05:17;2.15;;;1.73;;
33505;SDS011;19843;51.040;13.782;2022-08-05T00:08:05;1.70;;;1.60;;
33505;SDS011;19843;51.040;13.782;2022-08-05T00:10:54;1.50;;;1.40;;
33505;SDS011;19843;51.040;13.782;2022-08-05T00:13:25;2.22;;;1.70;;
33505;SDS011;19843;51.040;13.782;2022-08-05T00:16:06;1.58;;;1.48;;
33505;SDS011;19843;51.040;13.782;2022-08-05T00:18:40;2.50;;;1.55;;
33505;SDS011;19843;51.040;13.782;2022-08-05T00:21:10;2.10;;;1.60;;
33505;SDS011;19843;51.040;13.782;2022-08-05T00:23:40;1.90;;;1.70;;
33505;SDS011;19843;51.040;13.782;2022-08-05T00:26:12;2.72;;;1.50;;
33505;SDS011;19843;51.040;13.782;2022-08-05T00:28:41;1.98;;;1.88;;
33505;SDS011;19843;51.040;13.782;2022-08-05T00:31:12;3.03;;;1.55;;
33505;SDS011;19843;51.040;13.782;2022-08-05T00:33:40;1.58;;;1.48;;
33505;SDS011;19843;51.040;13.782;2022-08-05T00:36:27;1.65;;;1.35;;
33505;SDS011;19843;51.040;13.782;2022-08-05T00:39:14;1.80;;;1.50;;
33505;SDS011;19843;51.040;13.782;2022-08-05T00:41:44;2.00;;;1.80;;
33505;SDS011;19843;51.040;13.782;2022-08-05T00:44:20;1.73;;;1.63;;
33505;SDS011;19843;51.040;13.782;2022-08-05T00:46:58;2.17;;;1.67;;
33505;SDS011;19843;51.040;13.782;2022-08-05T00:49:29;2.45;;;1.90;;
33505;SDS011;19843;51.040;13.782;2022-08-05T00:51:58;1.85;;;1.67;;
33505;SDS011;19843;51.040;13.782;2022-08-05T00:54:25;2.17;;;1.75;;
33505;SDS011;19843;51.040;13.782;2022-08-05T00:56:55;2.33;;;1.70;;
33505;SDS011;19843;51.040;13.782;2022-08-05T00:59:22;1.95;;;1.75;;
33505;SDS011;19843;51.040;13.782;2022-08-05T01:01:50;2.22;;;2.03;;
33505;SDS011;19843;51.040;13.782;2022-08-05T01:04:19;1.48;;;1.38;;
33505;SDS011;19843;51.040;13.782;2022-08-05T01:06:54;2.38;;;1.67;;
33505;SDS011;19843;51.040;13.782;2022-08-05T01:09:24;2.15;;;1.80;;
33505;SDS011;19843;51.040;13.782;2022-08-05T01:11:57;1.83;;;1.60;;
33505;SDS011;19843;51.040;13.782;2022-08-05T01:14:44;1.88;;;1.75;;
33505;SDS011;19843;51.040;13.782;2022-08-05T01:17:17;2.25;;;2.05;;
33505;SDS011;19843;51.040;13.782;2022-08-05T01:19:53;2.08;;;1.73;;
33505;SDS011;19843;51.040;13.782;2022-08-05T01:22:37;3.55;;;1.80;;
33505;SDS011;19843;51.040;13.782;2022-08-05T01:25:18;2.05;;;1.85;;
33505;SDS011;19843;51.040;13.782;2022-08-05T01:28:14;1.90;;;1.77;;
33505;SDS011;19843;51.040;13.782;2022-08-05T01:30:45;2.10;;;1.90;;
33505;SDS011;19843;51.040;13.782;2022-08-05T01:33:20;3.08;;;1.70;;
33505;SDS011;19843;51.040;13.782;2022-08-05T01:35:51;1.90;;;1.70;;
33505;SDS011;19843;51.040;13.782;2022-08-05T01:38:22;2.90;;;2.63;;
33505;SDS011;19843;51.040;13.782;2022-08-05T01:40:56;2.67;;;2.47;;
33505;SDS011;19843;51.040;13.782;2022-08-05T01:43:26;2.22;;;2.05;;
33505;SDS011;19843;51.040;13.782;2022-08-05T01:45:55;1.98;;;1.77;;
33505;SDS011;19843;51.040;13.782;2022-08-05T01:48:33;1.95;;;1.45;;
33505;SDS011;19843;51.040;13.782;2022-08-05T01:51:02;3.80;;;1.80;;
33505;SDS011;19843;51.040;13.782;2022-08-05T01:53:37;2.00;;;1.85;;
33505;SDS011;19843;51.040;13.782;2022-08-05T01:56:24;2.67;;;1.95;;
33505;SDS011;19843;51.040;13.782;2022-08-05T01:59:17;3.33;;;2.40;;
33505;SDS011;19843;51.040;13.782;2022-08-05T02:01:48;4.22;;;2.13;;
33505;SDS011;19843;51.040;13.782;2022-08-05T02:04:21;2.15;;;1.88;;
33505;SDS011;19843;51.040;13.782;2022-08-05T02:06:52;2.58;;;2.05;;
33505;SDS011;19843;51.040;13.782;2022-08-05T02:09:20;2.30;;;2.10;;
33505;SDS011;19843;51.040;13.782;2022-08-05T02:11:50;4.18;;;2.80;;
33505;SDS011;19843;51.040;13.782;2022-08-05T02:14:39;5.63;;;2.45;;
33505;SDS011;19843;51.040;13.782;2022-08-05T02:17:15;2.90;;;2.03;;
33505;SDS011;19843;51.040;13.782;2022-08-05T02:20:10;3.97;;;2.30;;
33505;SDS011;19843;51.040;13.782;2022-08-05T02:22:46;2.38;;;2.00;;
33505;SDS011;19843;51.040;13.782;2022-08-05T02:25:21;2.00;;;1.90;;
33505;SDS011;19843;51.040;13.782;2022-08-05T02:27:58;2.15;;;2.00;;
33505;SDS011;19843;51.040;13.782;2022-08-05T02:30:36;2.58;;;2.22;;
33505;SDS011;19843;51.040;13.782;2022-08-05T02:33:19;2.63;;;2.10;;
33505;SDS011;19843;51.040;13.782;2022-08-05T02:36:03;2.80;;;2.50;;
33505;SDS011;19843;51.040;13.782;2022-08-05T02:38:34;2.92;;;2.03;;
33505;SDS011;19843;51.040;13.782;2022-08-05T02:41:04;3.33;;;2.03;;
33505;SDS011;19843;51.040;13.782;2022-08-05T02:43:43;3.95;;;2.08;;
33505;SDS011;19843;51.040;13.782;2022-08-05T02:46:33;3.17;;;2.22;;
33505;SDS011;19843;51.040;13.782;2022-08-05T02:49:22;2.20;;;2.00;;
33505;SDS011;19843;51.040;13.782;2022-08-05T02:51:51;4.68;;;2.40;;
33505;SDS011;19843;51.040;13.782;2022-08-05T02:54:29;2.80;;;2.15;;
33505;SDS011;19843;51.040;13.782;2022-08-05T02:57:02;3.25;;;2.28;;
33505;SDS011;19843;51.040;13.782;2022-08-05T02:59:51;2.92;;;2.22;;
33505;SDS011;19843;51.040;13.782;2022-08-05T03:02:21;2.40;;;2.20;;
33505;SDS011;19843;51.040;13.782;2022-08-05T03:04:53;2.40;;;2.08;;
33505;SDS011;19843;51.040;13.782;2022-08-05T03:07:23;2.40;;;2.03;;
33505;SDS011;19843;51.040;13.782;2022-08-05T03:10:13;2.17;;;2.00;;
33505;SDS011;19843;51.040;13.782;2022-08-05T03:12:50;4.75;;;2.17;;
33505;SDS011;19843;51.040;13.782;2022-08-05T03:15:18;2.80;;;2.17;;
33505;SDS011;19843;51.040;13.782;2022-08-05T03:17:50;3.95;;;2.10;;
33505;SDS011;19843;51.040;13.782;2022-08-05T03:20:21;4.43;;;2.38;;
33505;SDS011;19843;51.040;13.782;2022-08-05T03:22:49;2.30;;;1.80;;
33505;SDS011;19843;51.040;13.782;2022-08-05T03:25:20;2.65;;;2.10;;
33505;SDS011;19843;51.040;13.782;2022-08-05T03:28:08;2.25;;;2.05;;
33505;SDS011;19843;51.040;13.782;2022-08-05T03:30:39;3.70;;;2.13;;
33505;SDS011;19843;51.040;13.782;2022-08-05T03:33:09;2.20;;;2.00;;
33505;SDS011;19843;51.040;13.782;2022-08-05T03:35:37;2.50;;;2.25;;
33505;SDS011;19843;51.040;13.782;2022-08-05T03:38:06;2.65;;;2.20;;
33505;SDS011;19843;51.040;13.782;2022-08-05T03:40:38;2.65;;;2.40;;
33505;SDS011;19843;51.040;13.782;2022-08-05T03:45:58;3.03;;;2.40;;
33505;SDS011;19843;51.040;13.782;2022-08-05T03:48:27;2.53;;;2.20;;
33505;SDS011;19843;51.040;13.782;2022-08-05T03:50:57;2.50;;;2.22;;
33505;SDS011;19843;51.040;13.782;2022-08-05T03:53:51;2.15;;;1.90;;
33505;SDS011;19843;51.040;13.782;2022-08-05T03:56:44;5.88;;;2.60;;
33505;SDS011;19843;51.040;13.782;2022-08-05T03:59:16;3.30;;;2.13;;
33505;SDS011;19843;51.040;13.782;2022-08-05T04:01:46;2.72;;;2.33;;
33505;SDS011;19843;51.040;13.782;2022-08-05T04:04:18;4.43;;;2.25;;
33505;SDS011;19843;51.040;13.782;2022-08-05T04:06:51;5.15;;;2.97;;
33505;SDS011;19843;51.040;13.782;2022-08-05T04:09:21;2.97;;;2.50;;
33505;SDS011;19843;51.040;13.782;2022-08-05T04:11:52;2.88;;;2.45;;
33505;SDS011;19843;51.040;13.782;2022-08-05T04:14:22;2.33;;;2.13;;
33505;SDS011;19843;51.040;13.782;2022-08-05T04:16:56;4.38;;;2.40;;
33505;SDS011;19843;51.040;13.782;2022-08-05T04:19:26;3.03;;;2.72;;
33505;SDS011;19843;51.040;13.782;2022-08-05T04:21:54;3.63;;;2.60;;
33505;SDS011;19843;51.040;13.782;2022-08-05T04:24:36;3.17;;;2.67;;
33505;SDS011;19843;51.040;13.782;2022-08-05T04:27:09;3.08;;;2.60;;
33505;SDS011;19843;51.040;13.782;2022-08-05T04:29:37;4.00;;;2.50;;
33505;SDS011;19843;51.040;13.782;2022-08-05T04:32:05;2.60;;;2.40;;
33505;SDS011;19843;51.040;13.782;2022-08-05T04:34:35;2.45;;;2.17;;
33505;SDS011;19843;51.040;13.782;2022-08-05T04:37:08;2.40;;;2.15;;
33505;SDS011;19843;51.040;13.782;2022-08-05T04:39:36;3.90;;;3.03;;
33505;SDS011;19843;51.040;13.782;2022-08-05T04:42:05;3.42;;;2.35;;
33505;SDS011;19843;51.040;13.782;2022-08-05T04:44:34;2.63;;;2.42;;
33505;SDS011;19843;51.040;13.782;2022-08-05T04:47:01;5.45;;;3.00;;
33505;SDS011;19843;51.040;13.782;2022-08-05T04:49:36;4.28;;;3.50;;
33505;SDS011;19843;51.040;13.782;2022-08-05T04:52:24;3.13;;;2.83;;
33505;SDS011;19843;51.040;13.782;2022-08-05T04:54:54;3.22;;;2.90;;
33505;SDS011;19843;51.040;13.782;2022-08-05T04:57:23;2.92;;;2.50;;
33505;SDS011;19843;51.040;13.782;2022-08-05T04:59:54;3.05;;;2.72;;
33505;SDS011;19843;51.040;13.782;2022-08-05T05:02:21;4.07;;;2.65;;
33505;SDS011;19843;51.040;13.782;2022-08-05T05:05:08;5.43;;;2.30;;
33505;SDS011;19843;51.040;13.782;2022-08-05T05:07:54;5.25;;;2.67;;
33505;SDS011;19843;51.040;13.782;2022-08-05T05:10:27;6.50;;;2.60;;
33505;SDS011;19843;51.040;13.782;2022-08-05T05:12:58;2.90;;;2.25;;
33505;SDS011;19843;51.040;13.782;2022-08-05T05:15:29;5.45;;;2.58;;
33505;SDS011;19843;51.040;13.782;2022-08-05T05:18:16;3.40;;;3.10;;
33505;SDS011;19843;51.040;13.782;2022-08-05T05:21:00;2.60;;;2.40;;
33505;SDS011;19843;51.040;13.782;2022-08-05T05:23:30;3.10;;;2.38;;
33505;SDS011;19843;51.040;13.782;2022-08-05T05:26:18;2.58;;;1.98;;
33505;SDS011;19843;51.040;13.782;2022-08-05T05:28:53;4.45;;;2.55;;
33505;SDS011;19843;51.040;13.782;2022-08-05T05:31:22;4.25;;;2.80;;
33505;SDS011;19843;51.040;13.782;2022-08-05T05:33:50;3.38;;;2.30;;
33505;SDS011;19843;51.040;13.782;2022-08-05T05:36:28;3.35;;;3.00;;
33505;SDS011;19843;51.040;13.782;2022-08-05T05:38:56;3.78;;;2.65;;
33505;SDS011;19843;51.040;13.782;2022-08-05T05:41:24;3.00;;;2.33;;
33505;SDS011;19843;51.040;13.782;2022-08-05T05:44:06;2.05;;;1.90;;
33505;SDS011;19843;51.040;13.782;2022-08-05T05:46:53;4.60;;;2.50;;
33505;SDS011;19843;51.040;13.782;2022-08-05T05:49:23;3.03;;;2.50;;
33505;SDS011;19843;51.040;13.782;2022-08-05T05:51:52;2.88;;;2.22;;
33505;SDS011;19843;51.040;13.782;2022-08-05T05:54:20;3.28;;;2.70;;
33505;SDS011;19843;51.040;13.782;2022-08-05T05:57:07;4.57;;;2.45;;
33505;SDS011;19843;51.040;13.782;2022-08-05T05:59:39;3.28;;;2.42;;
33505;SDS011;19843;51.040;13.782;2022-08-05T06:02:08;2.40;;;2.20;;
33505;SDS011;19843;51.040;13.782;2022-08-05T06:04:35;3.53;;;2.63;;
33505;SDS011;19843;51.040;13.782;2022-08-05T06:07:04;5.10;;;2.80;;
33505;SDS011;19843;51.040;13.782;2022-08-05T06:09:35;4.47;;;2.65;;
33505;SDS011;19843;51.040;13.782;2022-08-05T06:12:23;2.65;;;2.33;;
33505;SDS011;19843;51.040;13.782;2022-08-05T06:14:52;2.30;;;2.10;;
33505;SDS011;19843;51.040;13.782;2022-08-05T06:17:22;5.00;;;2.30;;
33505;SDS011;19843;51.040;13.782;2022-08-05T06:19:56;3.03;;;2.70;;
33505;SDS011;19843;51.040;13.782;2022-08-05T06:22:26;3.40;;;2.50;;
33505;SDS011;19843;51.040;13.782;2022-08-05T06:24:59;3.35;;;2.40;;
33505;SDS011;19843;51.040;13.782;2022-08-05T06:27:46;3.85;;;2.53;;
33505;SDS011;19843;51.040;13.782;2022-08-05T06:30:34;2.78;;;2.55;;
33505;SDS011;19843;51.040;13.782;2022-08-05T06:33:01;3.53;;;2.60;;
33505;SDS011;19843;51.040;13.782;2022-08-05T06:35:29;2.95;;;2.30;;
33505;SDS011;19843;51.040;13.782;2022-08-05T06:38:18;2.78;;;2.03;;
33505;SDS011;19843;51.040;13.782;2022-08-05T06:41:02;5.78;;;3.28;;
33505;SDS011;19843;51.040;13.782;2022-08-05T06:43:30;2.53;;;2.22;;
33505;SDS011;19843;51.040;13.782;2022-08-05T06:46:18;2.22;;;2.03;;
33505;SDS011;19843;51.040;13.782;2022-08-05T06:48:45;2.03;;;1.92;;
33505;SDS011;19843;51.040;13.782;2022-08-05T06:51:21;5.78;;;2.30;;
33505;SDS011;19843;51.040;13.782;2022-08-05T06:53:57;3.45;;;2.10;;
33505;SDS011;19843;51.040;13.782;2022-08-05T06:56:27;2.13;;;1.85;;
33505;SDS011;19843;51.040;13.782;2022-08-05T06:59:00;3.20;;;1.77;;
33505;SDS011;19843;51.040;13.782;2022-08-05T07:01:28;2.65;;;1.90;;
33505;SDS011;19843;51.040;13.782;2022-08-05T07:03:58;3.35;;;1.90;;
33505;SDS011;19843;51.040;13.782;2022-08-05T07:06:27;3.80;;;1.42;;
33505;SDS011;19843;51.040;13.782;2022-08-05T07:08:58;3.42;;;1.80;;
33505;SDS011;19843;51.040;13.782;2022-08-05T07:11:29;3.05;;;1.65;;
33505;SDS011;19843;51.040;13.782;2022-08-05T07:14:02;1.60;;;1.50;;
33505;SDS011;19843;51.040;13.782;2022-08-05T07:16:55;2.70;;;1.80;;
33505;SDS011;19843;51.040;13.782;2022-08-05T07:19:46;1.55;;;1.45;;
33505;SDS011;19843;51.040;13.782;2022-08-05T07:22:33;2.00;;;1.80;;
33505;SDS011;19843;51.040;13.782;2022-08-05T07:25:02;1.50;;;1.35;;
33505;SDS011;19843;51.040;13.782;2022-08-05T07:27:50;2.53;;;1.50;;
33505;SDS011;19843;51.040;13.782;2022-08-05T07:30:27;2.30;;;1.90;;
33505;SDS011;19843;51.040;13.782;2022-08-05T07:32:58;6.25;;;2.00;;
33505;SDS011;19843;51.040;13.782;2022-08-05T07:35:30;3.60;;;2.13;;
33505;SDS011;19843;51.040;13.782;2022-08-05T07:38:18;2.30;;;2.10;;
33505;SDS011;19843;51.040;13.782;2022-08-05T07:41:01;2.83;;;2.05;;
33505;SDS011;19843;51.040;13.782;2022-08-05T07:43:49;3.20;;;2.03;;
33505;SDS011;19843;51.040;13.782;2022-08-05T07:46:21;3.30;;;2.03;;
33505;SDS011;19843;51.040;13.782;2022-08-05T07:48:50;3.38;;;2.88;;
33505;SDS011;19843;51.040;13.782;2022-08-05T07:51:30;5.75;;;2.55;;
33505;SDS011;19843;51.040;13.782;2022-08-05T07:54:23;2.83;;;2.30;;
33505;SDS011;19843;51.040;13.782;2022-08-05T07:57:05;3.15;;;2.70;;
33505;SDS011;19843;51.040;13.782;2022-08-05T07:59:52;2.83;;;2.40;;
33505;SDS011;19843;51.040;13.782;2022-08-05T08:02:24;4.20;;;2.08;;
33505;SDS011;19843;51.040;13.782;2022-08-05T08:05:12;3.45;;;2.25;;
33505;SDS011;19843;51.040;13.782;2022-08-05T08:07:39;2.92;;;2.63;;
33505;SDS011;19843;51.040;13.782;2022-08-05T08:10:25;3.63;;;2.53;;
33505;SDS011;19843;51.040;13.782;2022-08-05T08:12:55;2.00;;;1.88;;
33505;SDS011;19843;51.040;13.782;2022-08-05T08:15:23;2.47;;;2.28;;
33505;SDS011;19843;51.040;13.782;2022-08-05T08:18:11;3.47;;;2.10;;
33505;SDS011;19843;51.040;13.782;2022-08-05T08:20:39;3.05;;;2.25;;
33505;SDS011;19843;51.040;13.782;2022-08-05T08:23:27;3.30;;;2.58;;
33505;SDS011;19843;51.040;13.782;2022-08-05T08:26:14;3.42;;;2.50;;
33505;SDS011;19843;51.040;13.782;2022-08-05T08:28:53;3.08;;;2.10;;
33505;SDS011;19843;51.040;13.782;2022-08-05T08:31:41;4.85;;;2.63;;
33505;SDS011;19843;51.040;13.782;2022-08-05T08:34:08;2.22;;;2.03;;
33505;SDS011;19843;51.040;13.782;2022-08-05T08:36:37;2.55;;;2.22;;
33505;SDS011;19843;51.040;13.782;2022-08-05T08:39:17;2.50;;;2.10;;
33505;SDS011;19843;51.040;13.782;2022-08-05T08:41:47;4.70;;;2.55;;
33505;SDS011;19843;51.040;13.782;2022-08-05T08:44:27;3.70;;;2.20;;
33505;SDS011;19843;51.040;13.782;2022-08-05T08:47:17;2.58;;;2.10;;
33505;SDS011;19843;51.040;13.782;2022-08-05T08:49:47;2.33;;;2.13;;
33505;SDS011;19843;51.040;13.782;2022-08-05T08:52:37;7.35;;;2.95;;
33505;SDS011;19843;51.040;13.782;2022-08-05T08:55:12;2.35;;;2.15;;
33505;SDS011;19843;51.040;13.782;2022-08-05T08:57:57;2.72;;;2.17;;
33505;SDS011;19843;51.040;13.782;2022-08-05T09:00:29;3.75;;;2.40;;
33505;SDS011;19843;51.040;13.782;2022-08-05T09:02:57;2.92;;;2.10;;
33505;SDS011;19843;51.040;13.782;2022-08-05T09:05:25;2.70;;;2.28;;
33505;SDS011;19843;51.040;13.782;2022-08-05T09:08:12;3.05;;;2.13;;
33505;SDS011;19843;51.040;13.782;2022-08-05T09:10:40;3.70;;;2.25;;
33505;SDS011;19843;51.040;13.782;2022-08-05T09:13:12;2.22;;;2.00;;
33505;SDS011;19843;51.040;13.782;2022-08-05T09:15:42;2.67;;;2.47;;
33505;SDS011;19843;51.040;13.782;2022-08-05T09:18:09;5.22;;;2.55;;
33505;SDS011;19843;51.040;13.782;2022-08-05T09:20:38;2.85;;;2.08;;
33505;SDS011;19843;51.040;13.782;2022-08-05T09:23:08;2.88;;;2.15;;
33505;SDS011;19843;51.040;13.782;2022-08-05T09:25:45;2.45;;;2.25;;
33505;SDS011;19843;51.040;13.782;2022-08-05T09:28:28;4.13;;;2.20;;
33505;SDS011;19843;51.040;13.782;2022-08-05T09:31:00;5.13;;;2.10;;
33505;SDS011;19843;51.040;13.782;2022-08-05T09:33:50;2.42;;;1.98;;
33505;SDS011;19843;51.040;13.782;2022-08-05T09:36:20;2.28;;;1.90;;
33505;SDS011;19843;51.040;13.782;2022-08-05T09:38:59;1.80;;;1.70;;
33505;SDS011;19843;51.040;13.782;2022-08-05T09:41:54;4.75;;;2.22;;
33505;SDS011;19843;51.040;13.782;2022-08-05T09:44:33;3.53;;;2.17;;
33505;SDS011;19843;51.040;13.782;2022-08-05T09:47:07;2.40;;;2.20;;
33505;SDS011;19843;51.040;13.782;2022-08-05T09:49:40;3.08;;;2.30;;
33505;SDS011;19843;51.040;13.782;2022-08-05T09:52:28;2.88;;;1.90;;
33505;SDS011;19843;51.040;13.782;2022-08-05T09:54:58;4.30;;;2.05;;
33505;SDS011;19843;51.040;13.782;2022-08-05T09:57:46;3.60;;;2.20;;
33505;SDS011;19843;51.040;13.782;2022-08-05T10:00:20;2.53;;;2.30;;
33505;SDS011;19843;51.040;13.782;2022-08-05T10:02:51;2.75;;;2.22;;
33505;SDS011;19843;51.040;13.782;2022-08-05T10:05:24;2.40;;;2.20;;
33505;SDS011;19843;51.040;13.782;2022-08-05T10:07:53;3.05;;;2.75;;
33505;SDS011;19843;51.040;13.782;2022-08-05T10:10:45;3.13;;;1.85;;
33505;SDS011;19843;51.040;13.782;2022-08-05T10:13:25;3.55;;;2.50;;
33505;SDS011;19843;51.040;13.782;2022-08-05T10:16:29;2.60;;;2.40;;
33505;SDS011;19843;51.040;13.782;2022-08-05T10:19:00;3.75;;;2.25;;
33505;SDS011;19843;51.040;13.782;2022-08-05T10:21:34;2.40;;;2.05;;
33505;SDS011;19843;51.040;13.782;2022-08-05T10:24:06;5.90;;;2.40;;
33505;SDS011;19843;51.040;13.782;2022-08-05T10:26:36;4.13;;;2.75;;
33505;SDS011;19843;51.040;13.782;2022-08-05T10:29:28;3.20;;;2.67;;
33505;SDS011;19843;51.040;13.782;2022-08-05T10:32:20;3.75;;;2.22;;
33505;SDS011;19843;51.040;13.782;2022-08-05T10:35:09;3.88;;;2.08;;
33505;SDS011;19843;51.040;13.782;2022-08-05T10:37:37;2.13;;;1.92;;
33505;SDS011;19843;51.040;13.782;2022-08-05T10:40:13;2.80;;;2.28;;
33505;SDS011;19843;51.040;13.782;2022-08-05T10:42:53;2.13;;;1.92;;
33505;SDS011;19843;51.040;13.782;2022-08-05T10:45:25;2.50;;;2.30;;
33505;SDS011;19843;51.040;13.782;2022-08-05T10:51:19;2.72;;;2.53;;
33505;SDS011;19843;51.040;13.782;2022-08-05T10:53:54;3.13;;;2.30;;
33505;SDS011;19843;51.040;13.782;2022-08-05T10:56:27;2.70;;;2.00;;
33505;SDS011;19843;51.040;13.782;2022-08-05T10:59:00;2.80;;;2.50;;
33505;SDS011;19843;51.040;13.782;2022-08-05T11:01:38;2.22;;;1.92;;
33505;SDS011;19843;51.040;13.782;2022-08-05T11:04:28;4.70;;;2.30;;
33505;SDS011;19843;51.040;13.782;2022-08-05T11:07:04;2.63;;;2.30;;
33505;SDS011;19843;51.040;13.782;2022-08-05T11:09:37;3.15;;;2.33;;
33505;SDS011;19843;51.040;13.782;2022-08-05T11:15:21;2.97;;;2.42;;
33505;SDS011;19843;51.040;13.782;2022-08-05T11:18:21;4.93;;;2.30;;
33505;SDS011;19843;51.040;13.782;2022-08-05T11:20:52;2.63;;;2.40;;
33505;SDS011;19843;51.040;13.782;2022-08-05T11:23:28;3.28;;;2.53;;
33505;SDS011;19843;51.040;13.782;2022-08-05T11:26:19;2.33;;;2.13;;
33505;SDS011;19843;51.040;13.782;2022-08-05T11:28:54;5.80;;;2.65;;
33505;SDS011;19843;51.040;13.782;2022-08-05T11:31:32;2.53;;;2.33;;
33505;SDS011;19843;51.040;13.782;2022-08-05T11:34:33;3.25;;;2.38;;
33505;SDS011;19843;51.040;13.782;2022-08-05T11:37:02;2.03;;;1.83;;
33505;SDS011;19843;51.040;13.782;2022-08-05T11:39:51;3.08;;;2.38;;
33505;SDS011;19843;51.040;13.782;2022-08-05T11:42:21;3.67;;;2.70;;
33505;SDS011;19843;51.040;13.782;2022-08-05T11:44:54;2.45;;;1.95;;
33505;SDS011;19843;51.040;13.782;2022-08-05T11:47:30;3.63;;;2.03;;
33505;SDS011;19843;51.040;13.782;2022-08-05T11:50:15;2.38;;;2.17;;
33505;SDS011;19843;51.040;13.782;2022-08-05T11:52:42;2.38;;;2.17;;
33505;SDS011;19843;51.040;13.782;2022-08-05T11:55:16;2.95;;;2.30;;
33505;SDS011;19843;51.040;13.782;2022-08-05T11:57:44;3.85;;;2.60;;
33505;SDS011;19843;51.040;13.782;2022-08-05T12:00:32;2.17;;;1.83;;
33505;SDS011;19843;51.040;13.782;2022-08-05T12:03:16;1.83;;;1.70;;
33505;SDS011;19843;51.040;13.782;2022-08-05T12:05:56;1.67;;;1.58;;
33505;SDS011;19843;51.040;13.782;2022-08-05T12:08:25;1.63;;;1.52;;
33505;SDS011;19843;51.040;13.782;2022-08-05T12:10:53;2.10;;;1.95;;
33505;SDS011;19843;51.040;13.782;2022-08-05T12:13:30;2.53;;;1.65;;
33505;SDS011;19843;51.040;13.782;2022-08-05T12:16:16;2.10;;;1.48;;
33505;SDS011;19843;51.040;13.782;2022-08-05T12:18:44;2.22;;;1.48;;
33505;SDS011;19843;51.040;13.782;2022-08-05T12:21:19;1.52;;;1.42;;
33505;SDS011;19843;51.040;13.782;2022-08-05T12:23:56;2.83;;;1.52;;
33505;SDS011;19843;51.040;13.782;2022-08-05T12:26:32;1.73;;;1.40;;
33505;SDS011;19843;51.040;13.782;2022-08-05T12:29:01;1.83;;;1.70;;
33505;SDS011;19843;51.040;13.782;2022-08-05T12:31:30;1.70;;;1.40;;
33505;SDS011;19843;51.040;13.782;2022-08-05T12:34:13;1.53;;;1.43;;
33505;SDS011;19843;51.040;13.782;2022-08-05T12:36:49;2.35;;;1.70;;
33505;SDS011;19843;51.040;13.782;2022-08-05T12:39:18;1.80;;;1.50;;
33505;SDS011;19843;51.040;13.782;2022-08-05T12:41:47;1.60;;;1.42;;
33505;SDS011;19843;51.040;13.782;2022-08-05T12:44:23;1.63;;;1.52;;
33505;SDS011;19843;51.040;13.782;2022-08-05T12:46:59;1.67;;;1.58;;
33505;SDS011;19843;51.040;13.782;2022-08-05T12:49:37;1.40;;;1.25;;
33505;SDS011;19843;51.040;13.782;2022-08-05T12:52:26;1.40;;;1.30;;
33505;SDS011;19843;51.040;13.782;2022-08-05T12:55:14;1.52;;;1.40;;
33505;SDS011;19843;51.040;13.782;2022-08-05T12:57:49;2.00;;;1.60;;
33505;SDS011;19843;51.040;13.782;2022-08-05T13:00:40;2.05;;;1.35;;
33505;SDS011;19843;51.040;13.782;2022-08-05T13:03:29;1.55;;;1.45;;
33505;SDS011;19843;51.040;13.782;2022-08-05T13:05:58;3.92;;;2.13;;
33505;SDS011;19843;51.040;13.782;2022-08-05T13:08:26;1.58;;;1.00;;
33505;SDS011;19843;51.040;13.782;2022-08-05T13:10:58;1.67;;;1.45;;
33505;SDS011;19843;51.040;13.782;2022-08-05T13:13:27;1.58;;;1.48;;
33505;SDS011;19843;51.040;13.782;2022-08-05T13:16:15;1.38;;;1.27;;
33505;SDS011;19843;51.040;13.782;2022-08-05T13:18:49;1.98;;;1.30;;
33505;SDS011;19843;51.040;13.782;2022-08-05T13:21:20;1.55;;;1.45;;
33505;SDS011;19843;51.040;13.782;2022-08-05T13:23:53;2.33;;;2.03;;
33505;SDS011;19843;51.040;13.782;2022-08-05T13:26:23;2.17;;;1.58;;
33505;SDS011;19843;51.040;13.782;2022-08-05T13:28:56;3.58;;;1.75;;
33505;SDS011;19843;51.040;13.782;2022-08-05T13:31:25;1.42;;;1.33;;
33505;SDS011;19843;51.040;13.782;2022-08-05T13:34:13;1.55;;;1.42;;
33505;SDS011;19843;51.040;13.782;2022-08-05T13:36:50;2.22;;;1.60;;
33505;SDS011;19843;51.040;13.782;2022-08-05T13:39:18;1.33;;;1.05;;
33505;SDS011;19843;51.040;13.782;2022-08-05T13:42:06;1.40;;;1.30;;
33505;SDS011;19843;51.040;13.782;2022-08-05T13:44:41;1.65;;;1.48;;
33505;SDS011;19843;51.040;13.782;2022-08-05T13:47:11;1.25;;;1.10;;
33505;SDS011;19843;51.040;13.782;2022-08-05T13:49:59;2.13;;;1.38;;
33505;SDS011;19843;51.040;13.782;2022-08-05T13:52:32;2.22;;;1.75;;
33505;SDS011;19843;51.040;13.782;2022-08-05T13:55:01;1.40;;;1.00;;
33505;SDS011;19843;51.040;13.782;2022-08-05T14:00:18;4.05;;;1.50;;
33505;SDS011;19843;51.040;13.782;2022-08-05T14:02:53;2.03;;;1.17;;
33505;SDS011;19843;51.040;13.782;2022-08-05T14:05:21;1.42;;;1.30;;
33505;SDS011;19843;51.040;13.782;2022-08-05T14:08:08;1.48;;;1.23;;
33505;SDS011;19843;51.040;13.782;2022-08-05T14:10:45;2.63;;;1.40;;
33505;SDS011;19843;51.040;13.782;2022-08-05T14:13:13;1.35;;;1.23;;
33505;SDS011;19843;51.040;13.782;2022-08-05T14:15:42;1.00;;;0.90;;
33505;SDS011;19843;51.040;13.782;2022-08-05T14:18:30;1.42;;;1.23;;
33505;SDS011;19843;51.040;13.782;2022-08-05T14:20:57;1.35;;;1.15;;
33505;SDS011;19843;51.040;13.782;2022-08-05T14:23:45;8.30;;;1.33;;
33505;SDS011;19843;51.040;13.782;2022-08-05T14:26:12;3.70;;;1.40;;
33505;SDS011;19843;51.040;13.782;2022-08-05T14:29:00;1.25;;;1.15;;
33505;SDS011;19843;51.040;13.782;2022-08-05T14:31:29;1.40;;;1.10;;
33505;SDS011;19843;51.040;13.782;2022-08-05T14:34:16;0.80;;;0.80;;
33505;SDS011;19843;51.040;13.782;2022-08-05T14:36:48;1.33;;;1.00;;
33505;SDS011;19843;51.040;13.782;2022-08-05T14:39:16;1.23;;;1.10;;
33505;SDS011;19843;51.040;13.782;2022-08-05T14:41:48;1.38;;;1.25;;
33505;SDS011;19843;51.040;13.782;2022-08-05T14:44:36;1.23;;;1.13;;
33505;SDS011;19843;51.040;13.782;2022-08-05T14:47:05;1.65;;;1.30;;
33505;SDS011;19843;51.040;13.782;2022-08-05T14:49:34;1.67;;;1.58;;
33505;SDS011;19843;51.040;13.782;2022-08-05T14:52:21;1.33;;;1.20;;
33505;SDS011;19843;51.040;13.782;2022-08-05T14:55:08;2.35;;;1.20;;
33505;SDS011;19843;51.040;13.782;2022-08-05T14:57:40;2.13;;;1.13;;
33505;SDS011;19843;51.040;13.782;2022-08-05T15:00:21;2.60;;;1.13;;
33505;SDS011;19843;51.040;13.782;2022-08-05T15:02:55;2.53;;;1.27;;
33505;SDS011;19843;51.040;13.782;2022-08-05T15:05:24;1.40;;;1.30;;
33505;SDS011;19843;51.040;13.782;2022-08-05T15:08:12;2.08;;;1.35;;
33505;SDS011;19843;51.040;13.782;2022-08-05T15:10:59;1.65;;;1.40;;
33505;SDS011;19843;51.040;13.782;2022-08-05T15:13:29;2.03;;;1.17;;
33505;SDS011;19843;51.040;13.782;2022-08-05T15:16:15;1.42;;;1.30;;
33505;SDS011;19843;51.040;13.782;2022-08-05T15:18:44;1.63;;;1.52;;
33505;SDS011;19843;51.040;13.782;2022-08-05T15:21:12;1.80;;;1.60;;
33505;SDS011;19843;51.040;13.782;2022-08-05T15:23:46;1.13;;;1.13;;
33505;SDS011;19843;51.040;13.782;2022-08-05T15:26:14;1.30;;;1.20;;
33505;SDS011;19843;51.040;13.782;2022-08-05T15:28:57;1.73;;;1.10;;
33505;SDS011;19843;51.040;13.782;2022-08-05T15:31:27;1.20;;;1.10;;
33505;SDS011;19843;51.040;13.782;2022-08-05T15:34:01;1.55;;;1.45;;
33505;SDS011;19843;51.040;13.782;2022-08-05T15:36:48;2.25;;;1.05;;